createdAt,value
2022-08-10T00:00:57.121Z,11.90
2022-08-10T00:03:23.633Z,9.60
2022-08-10T00:05:52.984Z,11.90
2022-08-10T00:08:24.038Z,10.30
2022-08-10T00:10:56.018Z,13.20
2022-08-10T00:13:24.032Z,14.20
2022-08-10T00:15:54.900Z,18.40
2022-08-10T00:18:34.776Z,14.50
2022-08-10T00:21:07.993Z,15.60
2022-08-10T00:23:37.459Z,15.40
2022-08-10T00:26:05.674Z,14.90
2022-08-10T00:28:32.235Z,12.60
2022-08-10T00:30:59.271Z,12.20
2022-08-10T00:33:26.123Z,12.20
2022-08-10T00:35:52.658Z,16.20
2022-08-10T00:38:19.195Z,13.40
2022-08-10T00:40:46.128Z,15.80
2022-08-10T00:43:12.868Z,12.00
2022-08-10T00:45:39.885Z,8.90
2022-08-10T00:48:06.646Z,11.70
2022-08-10T00:50:33.727Z,11.20
2022-08-10T00:53:00.931Z,15.90
2022-08-10T00:55:27.987Z,16.60
2022-08-10T00:57:55.714Z,13.50
2022-08-10T01:00:24.136Z,9.60
2022-08-10T01:02:51.489Z,11.50
2022-08-10T01:05:19.664Z,9.80
2022-08-10T01:08:10.045Z,11.40
2022-08-10T01:11:01.745Z,10.90
2022-08-10T01:13:40.744Z,8.70
2022-08-10T01:16:20.661Z,8.80
2022-08-10T01:18:54.558Z,7.60
2022-08-10T01:21:57.126Z,9.00
2022-08-10T01:24:37.668Z,8.90
2022-08-10T01:27:20.780Z,8.40
2022-08-10T01:30:04.695Z,8.10
2022-08-10T01:32:37.089Z,8.60
2022-08-10T01:35:39.282Z,10.70
2022-08-10T01:38:11.168Z,11.00
2022-08-10T01:40:44.622Z,7.20
2022-08-10T01:43:15.819Z,8.50
2022-08-10T01:45:46.014Z,10.70
2022-08-10T01:48:28.466Z,11.90
2022-08-10T01:51:04.249Z,11.20
2022-08-10T01:53:40.989Z,8.70
2022-08-10T01:56:14.883Z,14.00
2022-08-10T01:58:46.128Z,11.20
2022-08-10T02:01:16.870Z,12.20
2022-08-10T02:04:04.270Z,10.50
2022-08-10T02:06:37.937Z,9.80
2022-08-10T02:09:07.310Z,17.80
2022-08-10T02:12:05.090Z,12.10
2022-08-10T02:14:33.515Z,11.10
2022-08-10T02:17:59.593Z,10.80
2022-08-10T02:20:05.151Z,15.40
2022-08-10T02:22:38.408Z,11.70
2022-08-10T02:27:57.651Z,10.90
2022-08-10T02:30:26.023Z,11.10
2022-08-10T02:32:54.668Z,9.20
2022-08-10T02:35:23.374Z,9.70
2022-08-10T02:37:57.227Z,14.30
2022-08-10T02:45:13.653Z,9.80
2022-08-10T02:45:20.592Z,12.10
2022-08-10T02:46:46.448Z,9.20
2022-08-10T02:49:21.208Z,8.50
2022-08-10T02:52:07.635Z,8.70
2022-08-10T02:54:42.651Z,9.30
2022-08-10T02:57:16.144Z,9.10
2022-08-10T02:59:49.315Z,11.40
2022-08-10T03:02:42.127Z,10.10
2022-08-10T03:05:14.067Z,13.70
2022-08-10T03:07:49.365Z,9.50
2022-08-10T03:10:21.129Z,9.70
2022-08-10T03:12:51.687Z,9.00
2022-08-10T03:15:21.436Z,8.70
2022-08-10T03:17:58.249Z,10.10
2022-08-10T03:20:40.486Z,13.30
2022-08-10T03:23:22.824Z,17.70
2022-08-10T03:25:54.063Z,10.20
2022-08-10T03:28:28.943Z,13.20
2022-08-10T03:30:59.756Z,15.00
2022-08-10T03:33:32.579Z,9.30
2022-08-10T03:36:43.572Z,11.00
2022-08-10T03:38:50.988Z,9.50
2022-08-10T03:41:35.948Z,8.40
2022-08-10T03:44:06.295Z,11.10
2022-08-10T03:46:37.719Z,13.50
2022-08-10T03:49:05.487Z,10.40
2022-08-10T03:51:34.352Z,12.10
2022-08-10T03:54:07.299Z,28.00
2022-08-10T03:56:37.036Z,22.60
2022-08-10T03:59:11.485Z,15.80
2022-08-10T04:02:44.274Z,22.30
2022-08-10T04:04:33.930Z,15.10
2022-08-10T04:07:03.063Z,13.80
2022-08-10T04:09:54.413Z,13.20
2022-08-10T04:12:20.029Z,13.40
2022-08-10T04:14:50.358Z,11.10
2022-08-10T04:17:57.081Z,15.10
2022-08-10T04:20:19.299Z,9.40
2022-08-10T04:22:51.778Z,11.50
2022-08-10T04:25:20.454Z,8.70
2022-08-10T04:27:48.568Z,9.80
2022-08-10T04:30:16.008Z,10.70
2022-08-10T04:32:47.398Z,11.50
2022-08-10T04:35:18.466Z,16.80
2022-08-10T04:37:50.439Z,18.40
2022-08-10T04:40:29.351Z,12.90
2022-08-10T04:43:01.403Z,15.00
2022-08-10T04:45:48.328Z,20.30
2022-08-10T04:48:42.687Z,13.70
2022-08-10T04:51:19.337Z,14.60
2022-08-10T04:54:05.024Z,20.20
2022-08-10T04:56:38.615Z,21.60
2022-08-10T04:59:10.246Z,18.80
2022-08-10T05:02:22.051Z,18.60
2022-08-10T05:04:33.793Z,19.30
2022-08-10T05:07:09.650Z,21.10
2022-08-10T05:10:01.516Z,19.90
2022-08-10T05:12:28.966Z,19.60
2022-08-10T05:14:55.890Z,22.80
2022-08-10T05:17:23.845Z,21.40
2022-08-10T05:20:03.945Z,28.60
2022-08-10T05:22:41.002Z,16.60
2022-08-10T05:25:10.768Z,22.70
2022-08-10T05:27:38.752Z,15.70
2022-08-10T05:30:07.292Z,26.80
2022-08-10T05:32:56.754Z,18.20
2022-08-10T05:35:22.663Z,16.80
2022-08-10T05:38:12.127Z,15.90
2022-08-10T05:40:40.524Z,17.10
2022-08-10T05:43:09.082Z,17.20
2022-08-10T05:46:17.683Z,12.20
2022-08-10T05:48:41.561Z,11.40
2022-08-10T05:51:10.497Z,14.00
2022-08-10T05:54:02.154Z,17.80
2022-08-10T05:56:26.318Z,12.70
2022-08-10T05:58:53.136Z,12.40
2022-08-10T06:01:24.373Z,13.90
2022-08-10T06:03:57.975Z,15.60
2022-08-10T06:06:28.179Z,9.60
2022-08-10T06:08:56.013Z,11.30
2022-08-10T06:12:27.102Z,11.20
2022-08-10T06:14:32.096Z,15.20
2022-08-10T06:17:00.693Z,10.00
2022-08-10T06:19:27.676Z,10.00
2022-08-10T06:22:01.478Z,12.10
2022-08-10T06:24:30.728Z,11.10
2022-08-10T06:26:58.718Z,11.90
2022-08-10T06:29:30.279Z,6.90
2022-08-10T06:31:59.068Z,4.00
2022-08-10T06:34:29.941Z,7.10
2022-08-10T06:37:01.208Z,9.90
2022-08-10T06:39:36.634Z,15.20
2022-08-10T06:42:17.715Z,14.40
2022-08-10T06:44:55.004Z,10.40
2022-08-10T06:47:29.729Z,9.30
2022-08-10T06:50:08.682Z,8.10
2022-08-10T06:52:37.871Z,8.70
2022-08-10T06:55:08.509Z,6.00
2022-08-10T06:57:38.182Z,9.10
2022-08-10T07:00:07.704Z,11.80
2022-08-10T07:02:43.724Z,7.70
2022-08-10T07:05:16.780Z,9.00
2022-08-10T07:07:46.282Z,9.30
2022-08-10T07:10:18.232Z,9.80
2022-08-10T07:12:47.672Z,9.30
2022-08-10T07:15:16.793Z,11.50
2022-08-10T07:17:45.675Z,8.20
2022-08-10T07:20:17.068Z,11.10
2022-08-10T07:23:08.706Z,4.70
2022-08-10T07:25:41.688Z,7.60
2022-08-10T07:28:09.861Z,11.00
2022-08-10T07:30:40.113Z,6.10
2022-08-10T07:33:09.053Z,5.60
2022-08-10T07:35:43.160Z,4.10
2022-08-10T07:38:21.258Z,7.10
2022-08-10T07:40:50.726Z,8.90
2022-08-10T07:43:21.357Z,3.90
2022-08-10T07:45:49.066Z,7.10
2022-08-10T07:48:26.882Z,3.90
2022-08-10T07:50:58.956Z,5.10
2022-08-10T07:53:38.058Z,7.20
2022-08-10T07:56:16.870Z,7.20
2022-08-10T07:59:02.535Z,6.50
2022-08-10T08:01:34.371Z,4.10
2022-08-10T08:04:10.563Z,5.00
2022-08-10T08:06:41.926Z,8.60
2022-08-10T08:09:10.697Z,13.30
2022-08-10T08:11:40.696Z,6.10
2022-08-10T08:14:08.515Z,10.20
2022-08-10T08:16:41.275Z,4.10
2022-08-10T08:19:26.851Z,3.30
2022-08-10T08:24:09.123Z,5.60
2022-08-10T08:24:44.480Z,2.80
2022-08-10T08:27:16.182Z,7.40
2022-08-10T08:29:46.567Z,5.90
2022-08-10T08:32:17.166Z,4.60
2022-08-10T08:34:44.726Z,5.70
2022-08-10T08:38:31.279Z,9.10
2022-08-10T08:40:05.663Z,6.40
2022-08-10T08:43:05.281Z,7.00
2022-08-10T08:45:54.096Z,3.30
2022-08-10T08:49:05.091Z,6.90
2022-08-10T08:52:18.620Z,4.60
2022-08-10T08:55:02.739Z,3.10
2022-08-10T08:57:50.425Z,2.80
2022-08-10T09:00:55.506Z,6.00
2022-08-10T09:03:37.582Z,5.60
2022-08-10T09:06:22.542Z,3.60
2022-08-10T09:09:34.478Z,5.10
2022-08-10T09:12:40.314Z,4.60
2022-08-10T09:15:39.666Z,4.20
2022-08-10T09:18:07.604Z,6.30
2022-08-10T09:21:05.984Z,5.30
2022-08-10T09:24:04.495Z,5.10
2022-08-10T09:26:45.138Z,6.40
2022-08-10T09:29:17.869Z,5.70
2022-08-10T09:36:13.563Z,3.60
2022-08-10T09:36:23.160Z,4.40
2022-08-10T09:38:12.300Z,3.80
2022-08-10T09:40:59.453Z,3.20
2022-08-10T09:43:50.763Z,3.50
2022-08-10T09:46:33.290Z,5.50
2022-08-10T09:49:54.500Z,5.20
2022-08-10T09:52:31.280Z,5.20
2022-08-10T09:56:18.966Z,4.00
2022-08-10T10:01:57.901Z,2.40
2022-08-10T10:04:15.856Z,2.60
2022-08-10T10:06:58.814Z,4.80
2022-08-10T10:09:44.097Z,4.00
2022-08-10T10:12:39.375Z,2.30
2022-08-10T10:15:37.123Z,4.00
2022-08-10T10:18:29.521Z,3.10
2022-08-10T10:21:54.534Z,3.80
2022-08-10T10:24:56.359Z,3.40
2022-08-10T10:27:37.600Z,4.70
2022-08-10T10:30:27.248Z,5.50
2022-08-10T10:33:13.331Z,4.70
2022-08-10T10:35:51.674Z,2.30
2022-08-10T10:38:21.565Z,4.40
2022-08-10T10:41:19.629Z,3.80
2022-08-10T10:44:21.164Z,6.60
2022-08-10T10:47:09.553Z,2.10
2022-08-10T10:49:49.298Z,3.50
2022-08-10T10:52:45.017Z,4.50
2022-08-10T10:55:18.449Z,3.40
2022-08-10T10:58:20.671Z,2.90
2022-08-10T11:01:01.614Z,3.30
2022-08-10T11:03:50.233Z,3.00
2022-08-10T11:06:52.038Z,8.20
2022-08-10T11:10:09.500Z,4.60
2022-08-10T11:12:45.701Z,4.90
2022-08-10T11:15:29.868Z,2.60
2022-08-10T11:18:08.698Z,5.20
2022-08-10T11:20:44.979Z,2.00
2022-08-10T11:23:33.467Z,9.30
2022-08-10T11:26:25.578Z,1.90
2022-08-10T11:29:20.052Z,3.80
2022-08-10T11:32:20.529Z,4.50
2022-08-10T11:35:36.898Z,4.90
2022-08-10T11:38:28.432Z,1.80
2022-08-10T11:42:05.739Z,3.60
2022-08-10T11:44:18.324Z,4.10
2022-08-10T11:47:00.992Z,4.20
2022-08-10T11:49:37.216Z,2.70
2022-08-10T11:52:10.562Z,3.50
2022-08-10T11:54:50.794Z,4.20
2022-08-10T11:57:19.546Z,3.40
2022-08-10T11:59:57.959Z,2.40
2022-08-10T12:02:44.171Z,5.10
2022-08-10T12:05:23.974Z,1.70
2022-08-10T12:10:01.775Z,3.40
2022-08-10T12:10:58.917Z,3.60
2022-08-10T12:13:30.557Z,2.40
2022-08-10T12:16:14.757Z,1.70
2022-08-10T12:19:01.464Z,2.10
2022-08-10T12:21:40.027Z,2.60
2022-08-10T12:24:32.318Z,5.20
2022-08-10T12:27:07.493Z,4.90
2022-08-10T12:29:51.839Z,3.50
2022-08-10T12:32:30.865Z,3.00
2022-08-10T12:35:27.396Z,5.00
2022-08-10T12:38:49.834Z,2.80
2022-08-10T12:41:43.146Z,5.50
2022-08-10T12:44:14.439Z,14.80
2022-08-10T12:47:05.757Z,2.30
2022-08-10T12:50:13.680Z,3.90
2022-08-10T12:53:14.480Z,2.00
2022-08-10T12:55:43.709Z,6.80
2022-08-10T12:58:59.558Z,2.70
2022-08-10T13:01:16.087Z,2.50
2022-08-10T13:04:21.423Z,3.50
2022-08-10T13:06:46.898Z,3.40
2022-08-10T13:09:56.127Z,1.90
2022-08-10T13:12:39.015Z,1.60
2022-08-10T13:15:45.593Z,3.20
2022-08-10T13:18:06.631Z,6.20
2022-08-10T13:20:52.253Z,3.30
2022-08-10T13:25:51.681Z,1.80
2022-08-10T13:28:45.654Z,4.50
2022-08-10T13:31:19.226Z,3.30
2022-08-10T13:36:41.163Z,2.00
2022-08-10T13:41:40.372Z,7.30
2022-08-10T13:44:10.989Z,6.00
2022-08-10T13:46:41.600Z,10.60
2022-08-10T13:49:11.126Z,11.10
2022-08-10T13:51:56.726Z,2.40
2022-08-10T13:54:36.158Z,5.30
2022-08-10T13:57:04.169Z,6.00
2022-08-10T14:00:33.797Z,5.30
2022-08-10T14:02:28.115Z,2.00
2022-08-10T14:04:57.674Z,3.80
2022-08-10T14:07:27.569Z,2.50
2022-08-10T14:10:06.580Z,1.90
2022-08-10T14:12:40.950Z,1.60
2022-08-10T14:15:13.955Z,2.00
2022-08-10T14:17:44.939Z,10.00
2022-08-10T14:20:19.277Z,4.50
2022-08-10T14:22:48.197Z,2.00
2022-08-10T14:25:15.970Z,3.40
2022-08-10T14:28:01.954Z,3.60
2022-08-10T14:30:32.406Z,2.90
2022-08-10T14:33:03.783Z,2.90
2022-08-10T14:36:18.537Z,7.70
2022-08-10T14:38:31.542Z,3.80
2022-08-10T14:41:01.159Z,2.90
2022-08-10T14:43:53.679Z,5.20
2022-08-10T14:46:23.583Z,6.50
2022-08-10T14:48:52.996Z,1.70
2022-08-10T14:51:25.731Z,2.50
2022-08-10T14:53:56.427Z,3.00
2022-08-10T14:56:30.447Z,2.20
2022-08-10T14:59:06.700Z,5.30
2022-08-10T15:02:00.963Z,5.30
2022-08-10T15:04:29.217Z,2.40
2022-08-10T15:07:23.057Z,3.10
2022-08-10T15:10:00.944Z,4.40
2022-08-10T15:12:35.466Z,2.10
2022-08-10T15:15:05.854Z,1.20
2022-08-10T15:17:36.592Z,2.30
2022-08-10T15:20:20.613Z,3.60
2022-08-10T15:22:52.236Z,2.30
2022-08-10T15:25:25.057Z,2.10
2022-08-10T15:30:30.670Z,3.30
2022-08-10T15:33:59.455Z,1.90
2022-08-10T15:37:02.453Z,2.00
2022-08-10T15:40:21.697Z,3.10
2022-08-10T15:42:54.341Z,2.80
2022-08-10T15:45:22.856Z,4.30
2022-08-10T15:48:02.476Z,1.50
2022-08-10T15:50:33.885Z,1.70
2022-08-10T15:53:08.945Z,1.50
2022-08-10T15:55:58.263Z,2.00
2022-08-10T15:58:39.860Z,2.80
2022-08-10T16:02:04.594Z,2.70
2022-08-10T16:04:34.558Z,1.50
2022-08-10T16:07:11.834Z,2.20
2022-08-10T16:10:11.033Z,2.20
2022-08-10T16:12:42.714Z,3.30
2022-08-10T16:15:17.810Z,4.30
2022-08-10T16:17:55.778Z,2.40
2022-08-10T16:20:53.552Z,4.20
2022-08-10T16:23:25.684Z,1.90
2022-08-10T16:26:13.499Z,2.20
2022-08-10T16:28:54.645Z,2.60
2022-08-10T16:31:25.066Z,2.40
2022-08-10T16:33:55.499Z,2.40
2022-08-10T16:36:31.581Z,4.00
2022-08-10T16:38:59.298Z,1.60
2022-08-10T16:42:03.456Z,1.40
2022-08-10T16:44:18.084Z,2.40
2022-08-10T16:46:47.541Z,2.90
2022-08-10T16:49:17.415Z,1.60
2022-08-10T16:52:08.673Z,4.10
2022-08-10T16:54:39.202Z,5.10
2022-08-10T16:57:10.866Z,3.30
2022-08-10T16:59:39.925Z,3.20
2022-08-10T17:02:11.097Z,3.00
2022-08-10T17:04:43.626Z,1.40
2022-08-10T17:07:15.600Z,1.20
2022-08-10T17:09:48.826Z,3.60
2022-08-10T17:12:19.817Z,5.10
2022-08-10T17:14:52.482Z,1.30
2022-08-10T17:17:45.925Z,1.60
2022-08-10T17:20:30.748Z,2.00
2022-08-10T17:23:10.421Z,2.80
2022-08-10T17:25:48.795Z,3.40
2022-08-10T17:28:34.826Z,2.20
2022-08-10T17:31:23.610Z,2.90
2022-08-10T17:34:02.532Z,4.70
2022-08-10T17:36:34.749Z,3.20
2022-08-10T17:39:05.165Z,2.60
2022-08-10T17:41:36.513Z,3.00
2022-08-10T17:44:04.847Z,6.00
2022-08-10T17:46:37.933Z,3.30
2022-08-10T17:49:11.802Z,2.90
2022-08-10T17:51:41.952Z,2.10
2022-08-10T17:54:21.369Z,3.40
2022-08-10T17:56:52.161Z,4.50
2022-08-10T17:59:24.130Z,5.80
2022-08-10T18:02:01.649Z,6.20
2022-08-10T18:04:41.469Z,4.00
2022-08-10T18:07:12.986Z,5.70
2022-08-10T18:09:55.520Z,3.40
2022-08-10T18:12:34.710Z,4.80
2022-08-10T18:15:13.395Z,5.50
2022-08-10T18:17:45.708Z,5.00
2022-08-10T18:20:14.337Z,5.50
2022-08-10T18:22:48.450Z,5.70
2022-08-10T18:25:22.428Z,4.90
2022-08-10T18:28:03.751Z,6.30
2022-08-10T18:30:36.237Z,7.40
2022-08-10T18:33:08.843Z,7.20
2022-08-10T18:35:39.120Z,7.80
2022-08-10T18:38:11.589Z,9.30
2022-08-10T18:40:50.721Z,6.00
2022-08-10T18:44:10.344Z,9.30
2022-08-10T18:46:12.492Z,10.70
2022-08-10T18:48:49.500Z,13.50
2022-08-10T18:51:24.823Z,6.60
2022-08-10T18:54:05.180Z,8.00
2022-08-10T18:56:39.453Z,10.20
2022-08-10T18:59:20.809Z,9.10
2022-08-10T19:02:22.162Z,5.20
2022-08-10T19:05:30.148Z,8.30
2022-08-10T19:08:30.751Z,9.90
2022-08-10T19:11:28.360Z,8.40
2022-08-10T19:14:03.181Z,11.30
2022-08-10T19:16:53.753Z,12.20
2022-08-10T19:19:33.597Z,13.40
2022-08-10T19:22:07.726Z,14.00
2022-08-10T19:24:57.547Z,11.30
2022-08-10T19:27:51.741Z,13.60
2022-08-10T19:30:28.586Z,7.50
2022-08-10T19:33:04.597Z,9.40
2022-08-10T19:36:03.508Z,13.00
2022-08-10T19:38:51.277Z,9.40
2022-08-10T19:41:44.694Z,5.80
2022-08-10T19:44:31.679Z,12.00
2022-08-10T19:47:25.819Z,7.60
2022-08-10T19:53:24.978Z,4.60
2022-08-10T19:56:18.531Z,11.50
2022-08-10T19:59:03.266Z,11.30
2022-08-10T20:01:54.394Z,5.50
2022-08-10T20:04:35.997Z,5.90
2022-08-10T20:07:27.217Z,5.30
2022-08-10T20:10:00.216Z,4.30
2022-08-10T20:12:50.639Z,13.90
2022-08-10T20:15:42.256Z,11.30
2022-08-10T20:18:34.052Z,19.20
2022-08-10T20:21:25.020Z,10.80
2022-08-10T20:23:57.766Z,11.10
2022-08-10T20:26:28.214Z,15.50
2022-08-10T20:29:04.330Z,14.90
2022-08-10T20:31:45.435Z,13.10
2022-08-10T20:34:20.839Z,16.90
2022-08-10T20:37:06.257Z,14.20
2022-08-10T20:39:56.159Z,15.20
2022-08-10T20:42:31.558Z,15.30
2022-08-10T20:45:19.606Z,14.20
2022-08-10T20:48:25.547Z,11.80
2022-08-10T20:51:13.483Z,13.50
2022-08-10T20:53:51.315Z,12.00
2022-08-10T20:56:47.805Z,9.90
2022-08-10T21:00:04.606Z,14.00
2022-08-10T21:02:48.974Z,10.20
2022-08-10T21:05:34.364Z,10.00
2022-08-10T21:08:17.279Z,13.50
2022-08-10T21:11:06.442Z,11.30
2022-08-10T21:14:11.292Z,10.40
2022-08-10T21:17:06.715Z,11.20
2022-08-10T21:19:59.368Z,10.20
2022-08-10T21:22:34.459Z,11.60
2022-08-10T21:25:29.451Z,10.90
2022-08-10T21:28:29.150Z,9.00
2022-08-10T21:31:36.298Z,10.70
2022-08-10T21:34:37.369Z,9.00
2022-08-10T21:37:19.962Z,8.00
2022-08-10T21:40:05.989Z,9.60
2022-08-10T21:43:32.170Z,11.40
2022-08-10T21:46:59.158Z,8.50
2022-08-10T21:50:27.293Z,10.50
2022-08-10T21:53:44.633Z,13.90
2022-08-10T21:56:47.732Z,11.10
2022-08-10T21:59:45.027Z,12.60
2022-08-10T22:02:49.765Z,12.90
2022-08-10T22:05:48.472Z,7.60
2022-08-10T22:08:38.441Z,10.20
2022-08-10T22:11:29.257Z,7.00
2022-08-10T22:14:15.446Z,11.90
2022-08-10T22:18:03.294Z,14.20
2022-08-10T22:20:35.841Z,10.90
2022-08-10T22:24:16.996Z,10.20
2022-08-10T22:27:46.614Z,8.90
2022-08-10T22:30:28.037Z,8.70
2022-08-10T22:33:37.689Z,8.80
2022-08-10T22:36:56.868Z,6.10
2022-08-10T22:40:12.101Z,9.30
2022-08-10T22:43:11.132Z,8.50
2022-08-10T22:46:08.132Z,8.40
2022-08-10T22:48:59.176Z,12.60
2022-08-10T22:51:36.106Z,9.50
2022-08-10T22:54:46.204Z,10.60
2022-08-10T22:57:36.661Z,9.40
2022-08-10T23:00:31.225Z,7.80
2022-08-10T23:03:10.765Z,9.90
2022-08-10T23:05:50.360Z,11.60
2022-08-10T23:08:33.798Z,13.50
2022-08-10T23:11:07.655Z,7.40
2022-08-10T23:13:41.329Z,9.10
2022-08-10T23:16:33.138Z,9.50
2022-08-10T23:19:11.569Z,10.00
2022-08-10T23:22:03.140Z,11.30
2022-08-10T23:24:44.481Z,9.80
2022-08-10T23:27:37.392Z,12.00
2022-08-10T23:30:11.154Z,10.80
2022-08-10T23:32:51.393Z,10.80
2022-08-10T23:36:30.006Z,9.40
2022-08-10T23:38:16.620Z,10.50
2022-08-10T23:40:46.970Z,9.00
2022-08-10T23:43:53.345Z,12.20
2022-08-10T23:46:21.667Z,8.90
2022-08-10T23:48:53.772Z,9.00
2022-08-10T23:51:54.888Z,9.00
2022-08-10T23:54:25.820Z,8.00
2022-08-10T23:57:00.991Z,6.90
2022-08-10T23:59:31.679Z,8.50
